Time;durP1;ratioP1;P1;durP2;ratioP2;P2;SDS_P1;SDS_P2;PMS_P1;PMS_P2;Temp;Humidity;BMP_temperature;BMP_pressure;BME280_temperature;BME280_humidity;BME280_pressure;Samples;Min_cycle;Max_cycle;Signal;HPM_P1;HPM_P2
2022/02/04 00:01:13;;;;;;;35.77;18.50;;;;;;;;;;4433720;32;20248;-82
2022/02/04 00:25:24;;;;;;;37.67;17.20;;;;;;;;;;4449292;32;20218;-82
2022/02/04 00:27:51;;;;;;;39.23;17.60;;;;;;;;;;4436646;32;20317;-82
2022/02/04 00:30:30;;;;;;;27.80;13.27;;;;;;;;;;4419421;32;20579;-82
2022/02/04 00:32:59;;;;;;;26.87;12.50;;;;;;;;;;4435851;32;20279;-82
2022/02/04 00:35:34;;;;;;;24.97;13.87;;;;;;;;;;4448782;32;20263;-81
2022/02/04 00:40:29;;;;;;;50.97;20.67;;;;;;;;;;4449693;32;20782;-83
2022/02/04 00:42:59;;;;;;;47.43;19.77;;;;;;;;;;4452661;32;20272;-83
2022/02/04 00:45:52;;;;;;;58.33;26.47;;;;;;;;;;4438262;32;20264;-82
2022/02/04 00:50:53;;;;;;;54.83;20.43;;;;;;;;;;4451982;32;20762;-83
2022/02/04 00:53:29;;;;;;;72.23;24.63;;;;;;;;;;4440666;32;20645;-83
2022/02/04 01:28:20;;;;;;;110.37;48.00;;;;;;;;;;4451546;32;20196;-82
2022/02/04 01:30:45;;;;;;;97.07;45.03;;;;;;;;;;4451099;32;20274;-82
2022/02/04 01:33:13;;;;;;;125.07;52.23;;;;;;;;;;4437471;32;20487;-81
2022/02/04 01:35:38;;;;;;;161.17;63.03;;;;;;;;;;4437807;32;20225;-82
2022/02/04 01:38:04;;;;;;;180.93;70.90;;;;;;;;;;4437052;32;20231;-82
2022/02/04 01:40:29;;;;;;;142.97;56.13;;;;;;;;;;4451294;32;20193;-83
2022/02/04 01:42:54;;;;;;;135.40;57.13;;;;;;;;;;4451156;32;20293;-82
2022/02/04 01:45:20;;;;;;;126.60;54.57;;;;;;;;;;4437371;32;20350;-82
2022/02/04 01:47:55;;;;;;;126.57;53.17;;;;;;;;;;4451585;32;20334;-82
2022/02/04 01:50:21;;;;;;;173.27;60.70;;;;;;;;;;4451163;32;20209;-82
2022/02/04 01:52:47;;;;;;;127.53;56.20;;;;;;;;;;4450641;32;20248;-83
2022/02/04 01:55:14;;;;;;;135.00;54.87;;;;;;;;;;4437438;32;20321;-82
2022/02/04 01:57:41;;;;;;;105.17;46.13;;;;;;;;;;4451342;32;20762;-83
2022/02/04 02:00:07;;;;;;;122.40;50.70;;;;;;;;;;4451062;32;20311;-82
2022/02/04 02:02:32;;;;;;;96.60;44.87;;;;;;;;;;4436970;32;20232;-82
2022/02/04 02:04:58;;;;;;;53.47;27.27;;;;;;;;;;4435954;32;20219;-82
2022/02/04 02:07:26;;;;;;;38.93;19.00;;;;;;;;;;4435381;32;20338;-82
2022/02/04 02:12:19;;;;;;;54.77;22.37;;;;;;;;;;4435527;32;20213;-81
2022/02/04 02:14:46;;;;;;;52.03;20.27;;;;;;;;;;4434463;32;20201;-82
2022/02/04 02:39:20;;;;;;;57.17;22.80;;;;;;;;;;4435170;32;20247;-82
2022/02/04 02:47:04;;;;;;;75.33;30.10;;;;;;;;;;4434715;32;20246;-83
2022/02/04 03:02:32;;;;;;;48.17;24.90;;;;;;;;;;4434859;32;20727;-81
2022/02/04 03:04:57;;;;;;;62.90;32.00;;;;;;;;;;4448778;32;20368;-82
2022/02/04 03:07:23;;;;;;;67.73;33.53;;;;;;;;;;4435523;32;20245;-82
2022/02/04 03:09:48;;;;;;;66.27;30.37;;;;;;;;;;4449785;32;20192;-82
2022/02/04 03:12:14;;;;;;;67.10;33.30;;;;;;;;;;4450238;32;20764;-83
2022/02/04 03:14:39;;;;;;;78.37;36.63;;;;;;;;;;4449928;32;20587;-83
2022/02/04 03:17:08;;;;;;;80.13;38.57;;;;;;;;;;4449993;32;20284;-82
2022/02/04 03:19:34;;;;;;;66.20;32.90;;;;;;;;;;4446018;32;20671;-82
2022/02/04 03:22:05;;;;;;;59.13;31.77;;;;;;;;;;4434100;32;20323;-83
2022/02/04 03:24:32;;;;;;;68.40;34.47;;;;;;;;;;4424233;32;20260;-82
2022/02/04 03:27:01;;;;;;;63.67;34.73;;;;;;;;;;4419740;32;20630;-81
2022/02/04 03:29:38;;;;;;;64.53;31.93;;;;;;;;;;4433185;32;20271;-82
2022/02/04 03:32:08;;;;;;;92.47;37.57;;;;;;;;;;4434208;32;20203;-83
2022/02/04 03:34:34;;;;;;;84.53;40.90;;;;;;;;;;4420986;32;20224;-82
2022/02/04 03:36:59;;;;;;;83.83;39.97;;;;;;;;;;4434443;32;20237;-84
2022/02/04 03:39:25;;;;;;;71.33;35.53;;;;;;;;;;4434118;32;20358;-83
2022/02/04 03:41:50;;;;;;;77.17;33.13;;;;;;;;;;4434636;32;20265;-83
2022/02/04 03:44:17;;;;;;;58.53;26.93;;;;;;;;;;4434372;32;20486;-82
2022/02/04 03:46:42;;;;;;;62.10;27.03;;;;;;;;;;4419983;32;20578;-83
2022/02/04 03:49:08;;;;;;;73.90;29.07;;;;;;;;;;4420006;32;20321;-82
2022/02/04 03:51:36;;;;;;;82.50;37.87;;;;;;;;;;4434449;32;20205;-82
2022/02/04 03:54:02;;;;;;;81.73;37.67;;;;;;;;;;4433929;32;20237;-82
2022/02/04 03:56:27;;;;;;;88.93;40.70;;;;;;;;;;4434127;32;20258;-82
2022/02/04 03:58:53;;;;;;;67.93;38.63;;;;;;;;;;4434032;32;20239;-81
2022/02/04 04:01:19;;;;;;;76.87;35.03;;;;;;;;;;4436360;32;20206;-81
2022/02/04 04:03:45;;;;;;;76.43;34.93;;;;;;;;;;4442893;32;20252;-81
2022/02/04 04:06:12;;;;;;;75.17;32.57;;;;;;;;;;4452226;32;20658;-80
2022/02/04 04:08:38;;;;;;;71.23;34.20;;;;;;;;;;4437237;32;20215;-83
2022/02/04 04:11:03;;;;;;;82.70;38.30;;;;;;;;;;4435879;32;20254;-82
2022/02/04 04:13:28;;;;;;;102.43;49.40;;;;;;;;;;4450865;32;20263;-82
2022/02/04 04:15:55;;;;;;;113.43;46.63;;;;;;;;;;4436347;32;20251;-81
2022/02/04 04:18:21;;;;;;;100.13;49.70;;;;;;;;;;4450712;32;20273;-81
2022/02/04 04:20:47;;;;;;;108.33;47.23;;;;;;;;;;4449678;32;20217;-83
2022/02/04 04:23:12;;;;;;;74.07;37.37;;;;;;;;;;4449883;32;20363;-83
2022/02/04 04:25:38;;;;;;;85.47;39.47;;;;;;;;;;4435539;32;20328;-83
2022/02/04 04:28:04;;;;;;;77.37;37.30;;;;;;;;;;4435445;32;20205;-83
2022/02/04 04:30:31;;;;;;;104.43;49.27;;;;;;;;;;4434264;32;20282;-83
2022/02/04 04:32:58;;;;;;;111.20;49.33;;;;;;;;;;4435827;32;20683;-83
2022/02/04 04:35:25;;;;;;;100.50;47.83;;;;;;;;;;4449378;32;20416;-82
2022/02/04 04:38:24;;;;;;;114.73;53.90;;;;;;;;;;4449058;32;20216;-82
2022/02/04 04:46:28;;;;;;;70.90;35.40;;;;;;;;;;4449437;32;20340;-83
2022/02/04 05:29:53;;;;;;;119.20;58.73;;;;;;;;;;4435711;32;20294;-84
2022/02/04 05:32:18;;;;;;;100.63;54.57;;;;;;;;;;4436182;32;20225;-83
2022/02/04 05:34:46;;;;;;;100.23;46.80;;;;;;;;;;4444707;32;20265;-82
2022/02/04 05:37:14;;;;;;;107.40;47.47;;;;;;;;;;4436332;32;20196;-83
2022/02/04 05:40:03;;;;;;;94.10;48.00;;;;;;;;;;4435512;32;20225;-83
2022/02/04 05:42:33;;;;;;;94.60;49.17;;;;;;;;;;4436025;32;20293;-83
2022/02/04 05:45:06;;;;;;;89.33;41.93;;;;;;;;;;4435445;32;20340;-83
2022/02/04 05:47:32;;;;;;;56.73;30.00;;;;;;;;;;4436200;32;20242;-84
2022/02/04 05:50:15;;;;;;;55.00;25.60;;;;;;;;;;4436005;32;20220;-85
2022/02/04 05:58:18;;;;;;;67.17;30.50;;;;;;;;;;4435045;32;20193;-84
2022/02/04 06:00:56;;;;;;;63.87;30.27;;;;;;;;;;4435716;32;20250;-83
2022/02/04 06:11:07;;;;;;;62.67;32.53;;;;;;;;;;4435828;32;20259;-86
2022/02/04 06:24:10;;;;;;;44.57;25.63;;;;;;;;;;4435671;32;20282;-86
2022/02/04 06:26:35;;;;;;;54.90;27.60;;;;;;;;;;4435413;32;20237;-90
2022/02/04 06:29:01;;;;;;;54.00;27.03;;;;;;;;;;4421623;32;20217;-90
2022/02/04 06:31:27;;;;;;;67.70;33.57;;;;;;;;;;4435765;32;20303;-82
2022/02/04 06:33:53;;;;;;;79.83;36.07;;;;;;;;;;4443468;32;20648;-83
2022/02/04 06:36:18;;;;;;;203.73;86.97;;;;;;;;;;4449139;32;20277;-82
2022/02/04 06:38:44;;;;;;;114.57;54.70;;;;;;;;;;4448120;32;20348;-83
2022/02/04 06:41:09;;;;;;;96.70;43.90;;;;;;;;;;4448707;32;20284;-83
2022/02/04 06:43:36;;;;;;;99.03;53.30;;;;;;;;;;4449999;32;20272;-84
2022/02/04 06:46:02;;;;;;;131.80;60.40;;;;;;;;;;4449541;32;20678;-83
2022/02/04 06:48:28;;;;;;;140.10;68.77;;;;;;;;;;4436633;32;20575;-82
2022/02/04 06:50:53;;;;;;;151.73;72.73;;;;;;;;;;4450334;32;20197;-83
2022/02/04 06:53:19;;;;;;;143.43;73.03;;;;;;;;;;4450394;32;20212;-84
2022/02/04 06:55:45;;;;;;;156.73;76.53;;;;;;;;;;4450163;32;20201;-83
2022/02/04 06:58:12;;;;;;;157.33;74.77;;;;;;;;;;4449301;32;20286;-84
2022/02/04 07:00:38;;;;;;;175.17;80.87;;;;;;;;;;4449104;32;20217;-83
2022/02/04 07:03:04;;;;;;;136.43;68.70;;;;;;;;;;4447827;32;20235;-83
2022/02/04 07:05:38;;;;;;;129.07;59.17;;;;;;;;;;4434987;32;20216;-84
2022/02/04 07:08:23;;;;;;;114.30;55.27;;;;;;;;;;4436387;32;20220;-83
2022/02/04 07:13:23;;;;;;;96.90;49.67;;;;;;;;;;4449934;32;20382;-83
2022/02/04 07:20:58;;;;;;;100.13;49.70;;;;;;;;;;4436798;32;20266;-82
2022/02/04 07:23:25;;;;;;;87.33;44.93;;;;;;;;;;4433280;32;20255;-83
2022/02/04 07:25:50;;;;;;;88.23;45.03;;;;;;;;;;4434299;32;20265;-82
2022/02/04 07:28:16;;;;;;;94.07;45.77;;;;;;;;;;4420323;32;20410;-82
2022/02/04 07:30:42;;;;;;;68.57;35.70;;;;;;;;;;4434190;32;20197;-83
2022/02/04 07:33:23;;;;;;;67.17;34.03;;;;;;;;;;4434324;32;20225;-82
2022/02/04 07:41:05;;;;;;;83.83;43.37;;;;;;;;;;4434370;32;20219;-83
2022/02/04 07:43:32;;;;;;;89.60;46.60;;;;;;;;;;4433938;32;20212;-82
2022/02/04 07:45:58;;;;;;;89.00;44.93;;;;;;;;;;4419666;32;20232;-82
2022/02/04 07:48:24;;;;;;;86.60;44.27;;;;;;;;;;4433666;32;20847;-82
2022/02/04 07:50:50;;;;;;;93.63;41.83;;;;;;;;;;4419570;32;20573;-84
2022/02/04 07:53:17;;;;;;;79.10;41.77;;;;;;;;;;4433563;32;20213;-85
2022/02/04 07:55:42;;;;;;;84.53;43.50;;;;;;;;;;4419832;32;20289;-82
2022/02/04 07:58:13;;;;;;;78.83;40.67;;;;;;;;;;4433561;32;20237;-83
2022/02/04 08:00:40;;;;;;;70.10;33.50;;;;;;;;;;4434029;32;20252;-82
2022/02/04 08:03:24;;;;;;;58.20;31.33;;;;;;;;;;4435686;32;20232;-83
2022/02/04 08:05:52;;;;;;;55.83;27.70;;;;;;;;;;4437262;32;20201;-83
2022/02/04 08:08:24;;;;;;;71.80;31.20;;;;;;;;;;4433163;32;20311;-84
2022/02/04 08:11:11;;;;;;;74.60;38.63;;;;;;;;;;4433562;32;20260;-83
2022/02/04 08:17:04;;;;;;;76.37;40.17;;;;;;;;;;4430412;32;20224;-83
2022/02/04 08:32:42;;;;;;;87.23;41.97;;;;;;;;;;4426651;32;20609;-86
2022/02/04 08:35:46;;;;;;;70.07;36.93;;;;;;;;;;4435399;32;20264;-84
2022/02/04 08:38:27;;;;;;;73.70;43.97;;;;;;;;;;4433577;32;20240;-83
2022/02/04 08:46:59;;;;;;;89.17;39.67;;;;;;;;;;4433445;32;20246;-82
2022/02/04 08:49:59;;;;;;;66.53;34.77;;;;;;;;;;4433733;32;20248;-83
2022/02/04 08:53:37;;;;;;;65.27;31.97;;;;;;;;;;4433815;32;20369;-85
2022/02/04 08:55:12;;;;;;;54.73;35.03;;;;;;;;;;4419672;32;20693;-89
2022/02/04 09:00:22;;;;;;;76.30;41.03;;;;;;;;;;4438754;32;20251;-83
2022/02/04 09:02:57;;;;;;;52.23;28.00;;;;;;;;;;4463183;32;20240;-83
2022/02/04 09:05:39;;;;;;;47.37;23.80;;;;;;;;;;4461933;27;20176;-83
2022/02/04 09:08:23;;;;;;;41.03;17.87;;;;;;;;;;4465082;32;20188;-82
2022/02/04 09:10:51;;;;;;;37.33;19.53;;;;;;;;;;4452024;32;20643;-79
2022/02/04 09:18:59;;;;;;;40.60;21.27;;;;;;;;;;4453320;32;20223;-81
2022/02/04 09:21:37;;;;;;;47.20;21.90;;;;;;;;;;4452802;32;20973;-81
2022/02/04 09:24:05;;;;;;;62.90;24.13;;;;;;;;;;4438960;32;20606;-82
2022/02/04 09:26:31;;;;;;;50.30;21.00;;;;;;;;;;4422993;32;20300;-81
2022/02/04 09:28:56;;;;;;;77.33;29.20;;;;;;;;;;4436575;32;20262;-82
2022/02/04 09:31:23;;;;;;;101.33;34.43;;;;;;;;;;4435529;32;20296;-83
2022/02/04 09:33:49;;;;;;;24.67;14.57;;;;;;;;;;4443257;32;20297;-82
2022/02/04 09:36:14;;;;;;;52.43;17.83;;;;;;;;;;4437407;32;20677;-82
2022/02/04 09:38:39;;;;;;;21.43;9.97;;;;;;;;;;4451020;32;20282;-81
2022/02/04 09:41:05;;;;;;;22.63;12.90;;;;;;;;;;4451325;32;20319;-83
2022/02/04 09:43:30;;;;;;;21.37;10.37;;;;;;;;;;4451179;32;20228;-84
2022/02/04 09:45:56;;;;;;;26.17;12.83;;;;;;;;;;4451262;32;20312;-83
2022/02/04 09:48:21;;;;;;;26.17;12.40;;;;;;;;;;4451343;32;20316;-82
2022/02/04 09:50:51;;;;;;;19.87;10.23;;;;;;;;;;4450878;32;20361;-81
2022/02/04 10:16:15;;;;;;;24.63;14.30;;;;;;;;;;4435171;32;20272;-80
2022/02/04 10:18:49;;;;;;;20.70;10.70;;;;;;;;;;4435106;32;20274;-87
2022/02/04 10:21:14;;;;;;;18.20;10.60;;;;;;;;;;4428035;32;20246;-84
2022/02/04 10:24:04;;;;;;;47.60;18.97;;;;;;;;;;4438710;32;20233;-80
2022/02/04 10:26:30;;;;;;;25.50;11.73;;;;;;;;;;4435951;32;20291;-82
2022/02/04 10:28:55;;;;;;;25.53;12.70;;;;;;;;;;4419370;32;20225;-82
2022/02/04 10:31:24;;;;;;;19.93;9.43;;;;;;;;;;4420010;32;20278;-80
2022/02/04 10:34:11;;;;;;;28.13;12.40;;;;;;;;;;4442370;32;20245;-82
2022/02/04 10:36:43;;;;;;;17.23;7.07;;;;;;;;;;4450577;32;20255;-81
2022/02/04 10:39:35;;;;;;;11.93;6.67;;;;;;;;;;4450618;32;20580;-79
2022/02/04 10:42:23;;;;;;;13.33;7.67;;;;;;;;;;4448657;32;20266;-81
2022/02/04 11:04:40;;;;;;;27.13;12.30;;;;;;;;;;4434826;32;20226;-85
2022/02/04 11:32:56;;;;;;;11.80;6.93;;;;;;;;;;4434499;32;20338;-81
2022/02/04 11:52:28;;;;;;;29.73;13.93;;;;;;;;;;4449171;32;20221;-85
2022/02/04 11:55:00;;;;;;;20.53;13.40;;;;;;;;;;4449549;32;20279;-86
2022/02/04 11:57:34;;;;;;;25.60;14.90;;;;;;;;;;4449419;32;20260;-85
2022/02/04 12:00:19;;;;;;;25.03;14.23;;;;;;;;;;4449001;32;20294;-86
2022/02/04 12:02:46;;;;;;;20.70;14.27;;;;;;;;;;4447958;32;20209;-85
2022/02/04 12:05:17;;;;;;;18.37;12.70;;;;;;;;;;4432891;32;20239;-86
2022/02/04 12:08:08;;;;;;;32.10;16.23;;;;;;;;;;4434593;32;20523;-86
2022/02/04 12:10:42;;;;;;;24.50;15.50;;;;;;;;;;4433027;32;20274;-84
2022/02/04 12:13:10;;;;;;;18.87;9.97;;;;;;;;;;4420124;32;20356;-84
2022/02/04 12:15:47;;;;;;;22.07;13.23;;;;;;;;;;4434096;32;20257;-84
2022/02/04 12:18:18;;;;;;;22.80;11.60;;;;;;;;;;4434455;32;20192;-84
2022/02/04 12:20:59;;;;;;;21.87;12.63;;;;;;;;;;4434359;32;20346;-85
2022/02/04 12:23:27;;;;;;;11.83;7.50;;;;;;;;;;4434173;32;20193;-84
2022/02/04 12:26:00;;;;;;;15.60;9.63;;;;;;;;;;4436023;32;20252;-84
2022/02/04 12:28:41;;;;;;;15.33;8.00;;;;;;;;;;4449199;32;20223;-83
2022/02/04 12:31:13;;;;;;;18.23;12.47;;;;;;;;;;4449856;32;20769;-84
2022/02/04 12:34:11;;;;;;;18.77;10.67;;;;;;;;;;4443523;32;20213;-85
2022/02/04 12:36:45;;;;;;;21.23;13.70;;;;;;;;;;4435853;32;20226;-84
2022/02/04 12:39:13;;;;;;;29.87;18.53;;;;;;;;;;4437693;32;20260;-84
2022/02/04 12:41:56;;;;;;;24.97;15.40;;;;;;;;;;4436910;32;20679;-84
2022/02/04 12:44:30;;;;;;;20.27;12.50;;;;;;;;;;4436829;32;20302;-86
2022/02/04 12:47:00;;;;;;;20.47;12.20;;;;;;;;;;4435537;32;20221;-81
2022/02/04 12:49:28;;;;;;;25.90;14.67;;;;;;;;;;4436629;32;20344;-84
2022/02/04 12:52:09;;;;;;;26.20;15.10;;;;;;;;;;4437740;32;20236;-83
2022/02/04 12:54:44;;;;;;;24.53;12.93;;;;;;;;;;4436873;32;20245;-83
2022/02/04 13:10:28;;;;;;;23.77;14.50;;;;;;;;;;4436639;32;20236;-83
2022/02/04 13:12:55;;;;;;;23.97;14.87;;;;;;;;;;4436687;32;20224;-83
2022/02/04 13:15:21;;;;;;;48.57;22.57;;;;;;;;;;4435677;32;20244;-85
2022/02/04 13:17:48;;;;;;;43.33;23.37;;;;;;;;;;4436961;32;20320;-84
2022/02/04 13:20:21;;;;;;;129.90;68.63;;;;;;;;;;4435566;32;20536;-84
2022/02/04 13:22:49;;;;;;;51.43;30.63;;;;;;;;;;4436850;32;20185;-84
2022/02/04 13:25:18;;;;;;;21.40;13.93;;;;;;;;;;4436583;32;20306;-84
2022/02/04 13:28:03;;;;;;;17.90;12.67;;;;;;;;;;4438105;32;20209;-84
2022/02/04 13:30:32;;;;;;;23.63;11.83;;;;;;;;;;4436246;32;20319;-84
2022/02/04 13:32:59;;;;;;;16.13;10.47;;;;;;;;;;4424686;32;20315;-83
2022/02/04 13:35:39;;;;;;;16.00;10.20;;;;;;;;;;4452093;32;20287;-84
2022/02/04 13:38:30;;;;;;;18.80;11.73;;;;;;;;;;4403534;32;20213;-85
2022/02/04 13:41:10;;;;;;;17.93;11.07;;;;;;;;;;4403961;32;20230;-85
2022/02/04 13:46:17;;;;;;;20.63;12.10;;;;;;;;;;4403282;32;20628;-85
2022/02/04 13:48:57;;;;;;;40.80;22.87;;;;;;;;;;4391116;32;20229;-84
2022/02/04 13:51:40;;;;;;;27.20;15.97;;;;;;;;;;4403181;32;20205;-83
2022/02/04 13:57:38;;;;;;;177.10;89.23;;;;;;;;;;4402897;32;20264;-83
2022/02/04 14:02:48;;;;;;;44.87;23.97;;;;;;;;;;4402216;32;20330;-81
2022/02/04 14:05:29;;;;;;;38.37;20.20;;;;;;;;;;4387141;32;20244;-81
2022/02/04 14:08:12;;;;;;;32.20;17.20;;;;;;;;;;4396026;32;20271;-80
2022/02/04 14:10:54;;;;;;;32.07;17.17;;;;;;;;;;4452260;32;20788;-81
2022/02/04 14:13:25;;;;;;;26.33;14.77;;;;;;;;;;4452736;32;20300;-80
2022/02/04 14:15:57;;;;;;;24.77;15.57;;;;;;;;;;4438147;32;20321;-81
2022/02/04 14:18:23;;;;;;;32.07;16.17;;;;;;;;;;4439865;32;20233;-82
2022/02/04 14:20:49;;;;;;;26.00;13.77;;;;;;;;;;4460080;32;20273;-80
2022/02/04 14:23:14;;;;;;;23.67;14.23;;;;;;;;;;4445557;32;20288;-81
2022/02/04 14:36:23;;;;;;;30.17;19.27;;;;;;;;;;4451164;32;20213;-82
2022/02/04 14:52:58;;;;;;;17.00;11.63;;;;;;;;;;4450583;32;20254;-82
2022/02/04 15:01:02;;;;;;;24.27;13.37;;;;;;;;;;4413463;32;20284;-82
2022/02/04 15:03:36;;;;;;;22.70;13.97;;;;;;;;;;4445160;32;20259;-81
2022/02/04 15:06:21;;;;;;;26.77;15.47;;;;;;;;;;4434975;32;20259;-83
2022/02/04 15:08:49;;;;;;;41.53;20.20;;;;;;;;;;4434955;32;20225;-84
2022/02/04 15:11:17;;;;;;;54.00;23.90;;;;;;;;;;4434911;32;20293;-80
2022/02/04 15:13:44;;;;;;;44.90;24.27;;;;;;;;;;4420756;32;20704;-85
2022/02/04 15:16:10;;;;;;;64.27;33.87;;;;;;;;;;4434748;32;20220;-83
2022/02/04 15:18:39;;;;;;;69.80;37.20;;;;;;;;;;4434668;32;20275;-82
2022/02/04 15:21:11;;;;;;;160.63;85.97;;;;;;;;;;4433165;32;20275;-82
2022/02/04 15:23:37;;;;;;;84.40;50.43;;;;;;;;;;4434554;32;20212;-83
2022/02/04 15:26:04;;;;;;;114.80;56.13;;;;;;;;;;4436102;32;20349;-83
2022/02/04 15:30:59;;;;;;;94.17;49.43;;;;;;;;;;4448847;32;20267;-82
2022/02/04 15:33:29;;;;;;;98.53;49.63;;;;;;;;;;4444772;32;20213;-78
2022/02/04 15:35:56;;;;;;;119.93;58.97;;;;;;;;;;4434422;32;20225;-80
2022/02/04 15:38:22;;;;;;;149.27;70.20;;;;;;;;;;4435417;32;20227;-79
2022/02/04 15:40:47;;;;;;;161.23;80.70;;;;;;;;;;4434399;32;20336;-79
2022/02/04 15:43:14;;;;;;;190.67;85.03;;;;;;;;;;4434359;32;20237;-79
2022/02/04 15:59:27;;;;;;;139.50;67.93;;;;;;;;;;4434007;32;20219;-79
2022/02/04 16:01:48;;;;;;;139.57;64.67;;;;;;;;;;4437226;32;20240;-81
2022/02/04 16:04:22;;;;;;;117.27;56.03;;;;;;;;;;4439877;32;20237;-79
2022/02/04 16:06:49;;;;;;;123.57;54.20;;;;;;;;;;4434284;32;20292;-78
2022/02/04 16:09:15;;;;;;;94.67;53.23;;;;;;;;;;4434083;32;20425;-79
2022/02/04 16:14:51;;;;;;;137.23;71.43;;;;;;;;;;4434240;32;20241;-80
2022/02/04 16:17:31;;;;;;;150.73;84.00;;;;;;;;;;4423477;32;20248;-79
2022/02/04 16:23:12;;;;;;;185.67;92.87;;;;;;;;;;4401565;32;20602;-80
2022/02/04 16:26:25;;;;;;;195.40;97.23;;;;;;;;;;4400251;32;20233;-78
2022/02/04 16:28:41;;;;;;;178.47;90.70;;;;;;;;;;4418677;32;20236;-81
2022/02/04 16:31:16;;;;;;;169.03;87.87;;;;;;;;;;4434094;32;20255;-82
2022/02/04 16:33:43;;;;;;;152.97;80.40;;;;;;;;;;4434034;32;20204;-78
2022/02/04 16:36:15;;;;;;;149.53;81.67;;;;;;;;;;4412694;32;20283;-88
2022/02/04 16:38:44;;;;;;;144.03;72.70;;;;;;;;;;4434487;32;20260;-87
2022/02/04 16:41:12;;;;;;;114.00;64.77;;;;;;;;;;4434354;32;20387;-87
2022/02/04 16:43:40;;;;;;;116.67;63.57;;;;;;;;;;4434073;32;20310;-86
2022/02/04 16:46:06;;;;;;;114.80;61.37;;;;;;;;;;4420738;32;20337;-85
2022/02/04 16:48:46;;;;;;;136.53;65.67;;;;;;;;;;4434779;32;20205;-85
2022/02/04 16:51:13;;;;;;;143.53;72.40;;;;;;;;;;4431361;32;20597;-88
2022/02/04 16:53:39;;;;;;;125.13;63.57;;;;;;;;;;4420139;32;20263;-88
2022/02/04 16:56:05;;;;;;;142.40;72.30;;;;;;;;;;4437323;32;20737;-85
2022/02/04 16:58:32;;;;;;;139.37;71.90;;;;;;;;;;4449913;32;20228;-86
2022/02/04 17:00:58;;;;;;;120.33;64.80;;;;;;;;;;4435998;32;20597;-89
2022/02/04 17:03:24;;;;;;;126.50;67.83;;;;;;;;;;4430477;32;20229;-72
2022/02/04 17:05:59;;;;;;;122.80;61.40;;;;;;;;;;4435055;32;20292;-90
2022/02/04 17:08:46;;;;;;;128.00;65.97;;;;;;;;;;4435467;32;20623;-86
2022/02/04 17:11:15;;;;;;;137.63;67.37;;;;;;;;;;4438265;32;20212;-90
2022/02/04 17:13:43;;;;;;;159.97;75.40;;;;;;;;;;4436073;32;20205;-90
2022/02/04 17:16:09;;;;;;;158.33;76.83;;;;;;;;;;4409766;32;20307;-89
2022/02/04 17:18:38;;;;;;;162.13;81.07;;;;;;;;;;4436961;32;20205;-91
2022/02/04 17:21:05;;;;;;;147.80;81.03;;;;;;;;;;4435445;32;20200;-91
2022/02/04 17:23:42;;;;;;;126.03;71.83;;;;;;;;;;4425047;32;20256;-92
2022/02/04 17:26:08;;;;;;;140.37;70.17;;;;;;;;;;4441448;32;20746;-89
2022/02/04 17:28:35;;;;;;;149.27;79.30;;;;;;;;;;4438791;32;20243;-88
2022/02/04 17:31:01;;;;;;;141.20;76.13;;;;;;;;;;4438871;32;20285;-84
2022/02/04 17:33:29;;;;;;;146.20;74.33;;;;;;;;;;4443633;32;20260;-91
2022/02/04 17:35:56;;;;;;;150.13;72.47;;;;;;;;;;4438217;32;20314;-88
2022/02/04 17:38:23;;;;;;;137.37;69.37;;;;;;;;;;4439701;32;20255;-89
2022/02/04 17:40:52;;;;;;;138.50;66.37;;;;;;;;;;4455422;32;20274;-89
2022/02/04 17:43:18;;;;;;;134.63;69.83;;;;;;;;;;4439999;32;20731;-91
2022/02/04 17:45:44;;;;;;;134.90;65.43;;;;;;;;;;4448850;32;20268;-88
2022/02/04 17:53:17;;;;;;;177.73;84.87;;;;;;;;;;4443901;32;20312;-86
2022/02/04 17:55:49;;;;;;;192.63;94.93;;;;;;;;;;4451123;32;20240;-85
2022/02/04 18:05:17;;;;;;;139.47;75.83;;;;;;;;;;4446752;32;20230;-83
2022/02/04 18:06:54;;;;;;;145.83;73.53;;;;;;;;;;4436685;32;20611;-82
2022/02/04 18:09:12;;;;;;;160.17;76.00;;;;;;;;;;4436012;32;20247;-84
2022/02/04 18:11:37;;;;;;;159.47;77.83;;;;;;;;;;4436420;32;20326;-83
2022/02/04 18:14:03;;;;;;;137.80;70.63;;;;;;;;;;4437162;32;20260;-80
2022/02/04 18:16:28;;;;;;;156.70;73.27;;;;;;;;;;4435793;32;20256;-84
2022/02/04 18:18:55;;;;;;;139.37;72.60;;;;;;;;;;4421346;32;20275;-83
2022/02/04 18:21:22;;;;;;;149.53;75.90;;;;;;;;;;4436412;32;20228;-83
2022/02/04 18:23:47;;;;;;;156.07;78.67;;;;;;;;;;4435153;32;20633;-83
2022/02/04 18:26:14;;;;;;;169.07;87.03;;;;;;;;;;4437812;32;20314;-83
2022/02/04 18:28:41;;;;;;;205.47;100.97;;;;;;;;;;4436296;32;20242;-83
2022/02/04 18:31:07;;;;;;;264.43;122.13;;;;;;;;;;4436336;32;20232;-83
2022/02/04 18:33:32;;;;;;;232.23;113.73;;;;;;;;;;4431911;32;20259;-83
2022/02/04 18:36:01;;;;;;;196.47;99.00;;;;;;;;;;4422611;32;20446;-84
2022/02/04 18:38:34;;;;;;;250.43;124.77;;;;;;;;;;4436724;32;20231;-84
2022/02/04 18:46:01;;;;;;;264.00;123.10;;;;;;;;;;4436638;32;20302;-83
2022/02/04 18:48:49;;;;;;;251.53;113.17;;;;;;;;;;4437462;32;20410;-83
2022/02/04 18:54:13;;;;;;;283.10;131.57;;;;;;;;;;4452192;32;20215;-83
2022/02/04 18:59:29;;;;;;;150.83;75.50;;;;;;;;;;4452881;32;20549;-83
2022/02/04 19:02:02;;;;;;;172.07;84.73;;;;;;;;;;4453802;32;20184;-83
2022/02/04 19:04:42;;;;;;;161.53;79.90;;;;;;;;;;4442859;32;20304;-83
2022/02/04 19:07:14;;;;;;;165.40;82.10;;;;;;;;;;4439042;32;20275;-84
2022/02/04 19:09:44;;;;;;;174.90;83.00;;;;;;;;;;4439370;32;20228;-81
2022/02/04 19:12:14;;;;;;;170.60;87.97;;;;;;;;;;4439897;32;20342;-83
2022/02/04 19:15:54;;;;;;;219.60;105.27;;;;;;;;;;4441602;32;20256;-84
2022/02/04 19:17:44;;;;;;;211.97;104.40;;;;;;;;;;4428441;32;20232;-83
2022/02/04 19:20:22;;;;;;;230.63;115.67;;;;;;;;;;4441547;32;20225;-82
2022/02/04 19:22:55;;;;;;;210.10;108.93;;;;;;;;;;4428824;32;20351;-81
2022/02/04 19:25:25;;;;;;;214.57;101.97;;;;;;;;;;4427213;32;20263;-81
2022/02/04 19:27:50;;;;;;;207.93;108.17;;;;;;;;;;4444991;32;20267;-82
2022/02/04 19:30:18;;;;;;;230.93;112.23;;;;;;;;;;4443943;32;20221;-83
2022/02/04 19:32:44;;;;;;;239.30;110.07;;;;;;;;;;4448736;32;20189;-82
2022/02/04 19:35:09;;;;;;;242.67;109.87;;;;;;;;;;4448450;32;20308;-82
2022/02/04 19:37:35;;;;;;;211.00;94.53;;;;;;;;;;4447992;32;20228;-82
2022/02/04 19:40:00;;;;;;;281.10;129.87;;;;;;;;;;4448241;32;20252;-86
2022/02/04 19:42:35;;;;;;;300.70;141.10;;;;;;;;;;4447193;32;20230;-83
2022/02/04 19:45:07;;;;;;;270.23;126.93;;;;;;;;;;4445015;32;20682;-82
2022/02/04 19:47:45;;;;;;;194.03;95.73;;;;;;;;;;4447914;32;20150;-85
2022/02/04 19:50:24;;;;;;;155.97;72.10;;;;;;;;;;4447340;32;20225;-86
2022/02/04 20:25:36;;;;;;;137.33;70.43;;;;;;;;;;4435646;32;20251;-84
2022/02/04 20:28:07;;;;;;;159.63;80.20;;;;;;;;;;4449393;32;20209;-82
2022/02/04 20:30:33;;;;;;;158.23;79.13;;;;;;;;;;4430819;32;20307;-83
2022/02/04 20:32:58;;;;;;;195.57;93.00;;;;;;;;;;4435304;32;20637;-84
2022/02/04 20:35:24;;;;;;;195.17;98.00;;;;;;;;;;4434751;32;20312;-84
2022/02/04 20:37:51;;;;;;;157.53;79.13;;;;;;;;;;4434751;32;20377;-88
2022/02/04 20:40:23;;;;;;;158.40;74.57;;;;;;;;;;4435223;32;20224;-85
2022/02/04 20:43:18;;;;;;;153.43;73.17;;;;;;;;;;4422503;32;20237;-85
2022/02/04 20:45:44;;;;;;;167.30;80.90;;;;;;;;;;4389399;32;20287;-85
2022/02/04 20:48:11;;;;;;;188.07;93.33;;;;;;;;;;4387739;32;20254;-87
2022/02/04 20:50:37;;;;;;;193.07;91.87;;;;;;;;;;4389523;32;20846;-86
2022/02/04 20:53:02;;;;;;;188.37;87.67;;;;;;;;;;4386144;32;20225;-84
2022/02/04 20:55:28;;;;;;;174.70;87.47;;;;;;;;;;4374044;32;20505;-85
2022/02/04 20:57:55;;;;;;;180.40;87.97;;;;;;;;;;4388498;32;20218;-85
2022/02/04 21:00:26;;;;;;;153.97;81.93;;;;;;;;;;4389425;32;20725;-86
2022/02/04 21:03:05;;;;;;;164.33;79.10;;;;;;;;;;4389151;32;20235;-86
2022/02/04 21:05:40;;;;;;;155.50;77.03;;;;;;;;;;4371725;32;20271;-85
2022/02/04 21:16:25;;;;;;;173.40;90.67;;;;;;;;;;4344556;33;20225;-86
2022/02/04 21:18:53;;;;;;;149.37;82.27;;;;;;;;;;4344256;33;20353;-85
2022/02/04 21:21:22;;;;;;;138.53;73.27;;;;;;;;;;4367367;32;20305;-85
2022/02/04 21:23:48;;;;;;;134.33;66.03;;;;;;;;;;4404123;32;20277;-85
2022/02/04 21:26:14;;;;;;;114.80;60.03;;;;;;;;;;4391092;32;20368;-85
2022/02/04 21:28:41;;;;;;;111.17;56.23;;;;;;;;;;4409084;32;20254;-86
2022/02/04 21:31:08;;;;;;;117.73;54.67;;;;;;;;;;4436952;32;20225;-86
2022/02/04 21:39:03;;;;;;;140.43;70.10;;;;;;;;;;4436406;32;20246;-86
2022/02/04 21:41:29;;;;;;;152.73;75.03;;;;;;;;;;4436108;32;20270;-85
2022/02/04 21:43:54;;;;;;;136.20;65.20;;;;;;;;;;4436055;32;20360;-85
2022/02/04 21:46:27;;;;;;;132.57;61.63;;;;;;;;;;4436083;32;20200;-85
2022/02/04 21:48:55;;;;;;;142.80;66.47;;;;;;;;;;4435966;32;20302;-85
2022/02/04 21:51:22;;;;;;;152.63;70.67;;;;;;;;;;4435840;32;20269;-86
2022/02/04 21:53:48;;;;;;;135.30;66.60;;;;;;;;;;4436344;32;20205;-85